createdAt,value
2022-08-24T00:02:09.638Z,1.97
2022-08-24T00:04:39.336Z,2.37
2022-08-24T00:07:08.642Z,2.60
2022-08-24T00:09:53.837Z,2.20
2022-08-24T00:12:20.700Z,2.50
2022-08-24T00:14:47.877Z,2.13
2022-08-24T00:17:17.011Z,2.13
2022-08-24T00:19:44.311Z,2.37
2022-08-24T00:22:11.159Z,2.90
2022-08-24T00:24:38.020Z,2.50
2022-08-24T00:27:06.763Z,2.23
2022-08-24T00:29:34.477Z,2.40
2022-08-24T00:32:01.760Z,2.10
2022-08-24T00:34:30.078Z,3.43
2022-08-24T00:36:56.921Z,2.30
2022-08-24T00:39:23.958Z,1.60
2022-08-24T00:41:52.181Z,2.43
2022-08-24T00:44:20.818Z,1.70
2022-08-24T00:46:58.298Z,2.23
2022-08-24T00:49:39.860Z,2.30
2022-08-24T00:52:14.647Z,2.13
2022-08-24T00:54:47.909Z,2.20
2022-08-24T00:57:17.127Z,1.80
2022-08-24T00:59:47.310Z,2.63
2022-08-24T01:02:24.907Z,1.93
2022-08-24T01:04:56.689Z,2.50
2022-08-24T01:07:25.276Z,2.13
2022-08-24T01:09:53.286Z,2.27
2022-08-24T01:12:20.734Z,2.50
2022-08-24T01:14:47.575Z,2.80
2022-08-24T01:17:38.668Z,2.20
2022-08-24T01:20:07.960Z,2.37
2022-08-24T01:23:04.077Z,2.17
2022-08-24T01:25:32.059Z,1.70
2022-08-24T01:28:05.700Z,2.53
2022-08-24T01:30:36.519Z,3.07
2022-08-24T01:33:07.289Z,2.30
2022-08-24T01:35:36.673Z,2.60
2022-08-24T01:38:07.350Z,2.03
2022-08-24T01:40:37.436Z,1.77
2022-08-24T01:43:06.708Z,1.73
2022-08-24T01:45:34.606Z,2.53
2022-08-24T01:48:02.695Z,1.93
2022-08-24T01:50:29.620Z,2.47
2022-08-24T01:53:05.374Z,2.13
2022-08-24T01:55:33.099Z,2.93
2022-08-24T01:58:00.456Z,1.90
2022-08-24T02:00:27.698Z,2.60
2022-08-24T02:02:56.249Z,2.47
2022-08-24T02:05:24.352Z,2.40
2022-08-24T02:07:51.830Z,2.27
2022-08-24T02:10:20.653Z,2.20
2022-08-24T02:12:57.989Z,2.63
2022-08-24T02:15:27.648Z,4.37
2022-08-24T02:17:55.408Z,2.30
2022-08-24T02:20:22.827Z,2.60
2022-08-24T02:22:50.738Z,4.03
2022-08-24T02:25:18.055Z,2.27
2022-08-24T02:27:45.008Z,2.67
2022-08-24T02:30:12.136Z,2.23
2022-08-24T02:32:42.206Z,1.83
2022-08-24T02:35:09.329Z,2.50
2022-08-24T02:37:36.326Z,2.30
2022-08-24T02:40:10.740Z,2.40
2022-08-24T02:42:37.618Z,2.30
2022-08-24T02:45:05.416Z,2.70
2022-08-24T02:47:38.739Z,1.97
2022-08-24T02:50:08.399Z,2.73
2022-08-24T02:52:37.468Z,2.27
2022-08-24T02:55:04.959Z,2.67
2022-08-24T02:57:31.758Z,2.30
2022-08-24T02:59:58.538Z,2.70
2022-08-24T03:02:25.795Z,2.50
2022-08-24T03:04:53.608Z,2.40
2022-08-24T03:07:20.378Z,3.03
2022-08-24T03:09:47.456Z,1.93
2022-08-24T03:12:14.258Z,2.10
2022-08-24T03:14:41.659Z,2.00
2022-08-24T03:17:09.138Z,1.87
2022-08-24T03:19:35.908Z,2.70
2022-08-24T03:22:03.196Z,4.30
2022-08-24T03:24:30.040Z,2.23
2022-08-24T03:26:56.816Z,2.57
2022-08-24T03:29:26.308Z,2.50
2022-08-24T03:31:53.059Z,1.93
2022-08-24T03:34:21.059Z,2.30
2022-08-24T03:36:47.816Z,2.70
2022-08-24T03:39:16.188Z,2.70
2022-08-24T03:41:43.076Z,2.60
2022-08-24T03:44:10.008Z,2.70
2022-08-24T03:46:38.261Z,2.40
2022-08-24T03:49:08.958Z,3.70
2022-08-24T03:51:36.921Z,2.10
2022-08-24T03:54:05.117Z,2.93
2022-08-24T03:56:32.136Z,2.90
2022-08-24T03:58:59.039Z,2.10
2022-08-24T04:01:26.470Z,2.60
2022-08-24T04:03:54.365Z,2.43
2022-08-24T04:06:22.338Z,1.87
2022-08-24T04:08:50.067Z,3.00
2022-08-24T04:11:26.157Z,3.30
2022-08-24T04:13:56.710Z,2.90
2022-08-24T04:16:24.921Z,3.07
2022-08-24T04:18:51.938Z,2.73
2022-08-24T04:21:22.052Z,2.30
2022-08-24T04:23:49.378Z,2.70
2022-08-24T04:26:32.430Z,3.00
2022-08-24T04:29:08.051Z,2.63
2022-08-24T04:31:36.807Z,1.97
2022-08-24T04:34:04.291Z,2.43
2022-08-24T04:36:32.518Z,2.43
2022-08-24T04:39:00.054Z,3.40
2022-08-24T04:41:31.141Z,2.67
2022-08-24T04:43:59.658Z,2.63
2022-08-24T04:46:27.368Z,2.73
2022-08-24T04:48:54.378Z,3.03
2022-08-24T04:51:21.507Z,2.53
2022-08-24T04:53:48.810Z,2.90
2022-08-24T04:56:20.149Z,3.00
2022-08-24T04:58:47.492Z,2.63
2022-08-24T05:01:18.114Z,2.53
2022-08-24T05:03:50.414Z,2.23
2022-08-24T05:06:21.913Z,3.00
2022-08-24T05:08:49.059Z,2.63
2022-08-24T05:11:20.180Z,2.80
2022-08-24T05:13:47.501Z,3.13
2022-08-24T05:16:18.215Z,2.80
2022-08-24T05:18:45.831Z,2.90
2022-08-24T05:21:15.244Z,2.67
2022-08-24T05:23:43.857Z,3.23
2022-08-24T05:26:26.076Z,3.87
2022-08-24T05:28:58.043Z,3.60
2022-08-24T05:31:29.922Z,4.60
2022-08-24T05:33:57.140Z,4.23
2022-08-24T05:36:27.602Z,4.57
2022-08-24T05:38:55.940Z,5.20
2022-08-24T05:41:23.060Z,3.30
2022-08-24T05:43:50.658Z,2.67
2022-08-24T05:46:17.691Z,3.07
2022-08-24T05:48:52.716Z,2.50
2022-08-24T05:51:21.093Z,2.33
2022-08-24T05:53:48.110Z,2.90
2022-08-24T05:56:17.440Z,3.20
2022-08-24T05:58:44.922Z,4.00
2022-08-24T06:01:14.476Z,4.17
2022-08-24T06:03:42.179Z,3.50
2022-08-24T06:06:09.850Z,4.43
2022-08-24T06:08:41.537Z,4.47
2022-08-24T06:11:09.543Z,4.53
2022-08-24T06:13:36.463Z,4.80
2022-08-24T06:16:21.127Z,4.40
2022-08-24T06:18:49.968Z,4.00
2022-08-24T06:21:20.898Z,4.50
2022-08-24T06:23:48.267Z,4.57
2022-08-24T06:26:34.501Z,5.20
2022-08-24T06:29:01.312Z,5.37
2022-08-24T06:31:28.746Z,4.70
2022-08-24T06:34:06.153Z,6.30
2022-08-24T06:36:33.008Z,4.67
2022-08-24T06:39:00.215Z,4.70
2022-08-24T06:41:27.810Z,5.40
2022-08-24T06:43:54.792Z,5.07
2022-08-24T06:46:24.559Z,5.20
2022-08-24T06:48:54.263Z,5.60
2022-08-24T06:51:25.532Z,6.17
2022-08-24T06:53:52.286Z,6.20
2022-08-24T06:56:20.030Z,4.47
2022-08-24T06:58:46.892Z,5.80
2022-08-24T07:01:18.217Z,5.33
2022-08-24T07:03:45.965Z,6.10
2022-08-24T07:06:14.512Z,4.73
2022-08-24T07:08:43.054Z,5.40
2022-08-24T07:11:10.722Z,6.07
2022-08-24T07:13:37.601Z,5.50
2022-08-24T07:16:05.137Z,5.37
2022-08-24T07:18:32.072Z,5.20
2022-08-24T07:21:03.620Z,4.57
2022-08-24T07:23:41.417Z,5.93
2022-08-24T07:26:20.894Z,6.00
2022-08-24T07:29:01.339Z,5.10
2022-08-24T07:31:31.958Z,5.30
2022-08-24T07:34:02.831Z,4.90
2022-08-24T07:36:29.954Z,5.20
2022-08-24T07:38:57.531Z,3.33
2022-08-24T07:44:13.739Z,3.70
2022-08-24T07:46:41.552Z,3.37
2022-08-24T07:49:11.964Z,3.87
2022-08-24T07:51:46.968Z,3.13
2022-08-24T07:54:14.740Z,3.70
2022-08-24T07:56:42.812Z,3.03
2022-08-24T07:59:13.338Z,3.43
2022-08-24T08:01:41.668Z,3.30
2022-08-24T08:04:09.485Z,3.47
2022-08-24T08:06:36.903Z,2.90
2022-08-24T08:09:05.468Z,4.13
2022-08-24T08:11:33.117Z,3.93
2022-08-24T08:13:59.972Z,3.77
2022-08-24T08:16:27.713Z,3.77
2022-08-24T08:19:09.344Z,3.60
2022-08-24T08:22:03.852Z,3.33
2022-08-24T08:24:30.748Z,3.53
2022-08-24T08:26:58.111Z,3.03
2022-08-24T08:29:25.493Z,2.80
2022-08-24T08:31:53.100Z,3.30
2022-08-24T08:34:20.249Z,2.97
2022-08-24T08:36:47.482Z,3.70
2022-08-24T08:39:16.091Z,3.20
2022-08-24T08:42:20.501Z,3.87
2022-08-24T08:45:04.540Z,3.90
2022-08-24T08:47:56.426Z,3.60
2022-08-24T08:50:48.398Z,4.30
2022-08-24T08:53:36.593Z,3.13
2022-08-24T08:56:15.339Z,2.90
2022-08-24T08:59:01.712Z,3.33
2022-08-24T09:01:53.552Z,2.60
2022-08-24T09:04:55.995Z,2.27
2022-08-24T09:07:45.840Z,3.07
2022-08-24T09:10:18.142Z,3.10
2022-08-24T09:13:17.502Z,3.13
2022-08-24T09:15:57.801Z,2.60
2022-08-24T09:18:30.298Z,3.60
2022-08-24T09:21:22.720Z,2.43
2022-08-24T09:24:13.370Z,2.80
2022-08-24T09:27:21.592Z,2.73
2022-08-24T09:30:04.480Z,3.33
2022-08-24T09:32:36.357Z,3.10
2022-08-24T09:35:10.580Z,3.53
2022-08-24T09:38:00.478Z,3.00
2022-08-24T09:40:57.932Z,3.13
2022-08-24T09:43:39.608Z,4.90
2022-08-24T09:46:13.219Z,2.83
2022-08-24T09:49:04.823Z,3.80
2022-08-24T09:51:58.958Z,3.33
2022-08-24T09:54:55.699Z,3.70
2022-08-24T09:57:27.696Z,2.73
2022-08-24T10:00:14.079Z,2.90
2022-08-24T10:02:48.821Z,3.30
2022-08-24T10:05:55.988Z,3.00
2022-08-24T10:08:40.458Z,3.50
2022-08-24T10:11:16.410Z,3.13
2022-08-24T10:14:25.241Z,2.13
2022-08-24T10:17:08.528Z,2.50
2022-08-24T10:20:10.731Z,2.30
2022-08-24T10:22:52.649Z,2.20
2022-08-24T10:25:39.071Z,2.30
2022-08-24T10:28:31.840Z,2.37
2022-08-24T10:31:12.855Z,2.63
2022-08-24T10:34:03.789Z,2.47
2022-08-24T10:37:02.500Z,2.10
2022-08-24T10:39:45.993Z,1.90
2022-08-24T10:43:00.858Z,2.40
2022-08-24T10:45:50.143Z,1.97
2022-08-24T10:48:49.384Z,2.30
2022-08-24T10:51:56.992Z,1.80
2022-08-24T10:54:24.270Z,2.43
2022-08-24T10:57:21.368Z,1.93
2022-08-24T11:00:03.360Z,2.57
2022-08-24T11:02:34.890Z,2.60
2022-08-24T11:05:06.569Z,2.53
2022-08-24T11:07:33.474Z,1.80
2022-08-24T11:10:02.516Z,2.30
2022-08-24T11:12:37.229Z,1.93
2022-08-24T11:15:26.511Z,1.77
2022-08-24T11:17:59.068Z,2.17
2022-08-24T11:20:49.272Z,1.33
2022-08-24T11:23:21.687Z,2.00
2022-08-24T11:26:04.648Z,1.63
2022-08-24T11:29:01.313Z,1.80
2022-08-24T11:31:36.345Z,1.93
2022-08-24T11:34:08.281Z,1.93
2022-08-24T11:36:38.065Z,1.43
2022-08-24T11:39:29.540Z,1.83
2022-08-24T11:42:04.178Z,1.70
2022-08-24T11:45:02.814Z,2.53
2022-08-24T11:47:39.402Z,1.60
2022-08-24T11:50:28.999Z,1.80
2022-08-24T11:53:12.345Z,1.03
2022-08-24T11:56:08.046Z,1.53
2022-08-24T11:58:48.381Z,1.57
2022-08-24T12:01:29.284Z,1.37
2022-08-24T12:04:20.952Z,2.07
2022-08-24T12:06:59.217Z,1.43
2022-08-24T12:10:03.638Z,1.93
2022-08-24T12:12:42.882Z,1.50
2022-08-24T12:15:54.459Z,1.47
2022-08-24T12:18:27.992Z,1.50
2022-08-24T12:20:55.163Z,1.40
2022-08-24T12:23:37.629Z,1.17
2022-08-24T12:26:10.378Z,1.20
2022-08-24T12:28:44.880Z,1.10
2022-08-24T12:31:23.123Z,1.20
2022-08-24T12:33:53.332Z,1.33
2022-08-24T12:36:29.682Z,1.60
2022-08-24T12:39:11.359Z,1.77
2022-08-24T12:41:57.910Z,1.20
2022-08-24T12:44:31.892Z,1.67
2022-08-24T12:46:59.345Z,1.20
2022-08-24T12:49:33.736Z,1.03
2022-08-24T12:52:19.028Z,1.30
2022-08-24T12:55:06.928Z,1.07
2022-08-24T12:57:54.155Z,1.17
2022-08-24T13:00:28.736Z,1.57
2022-08-24T13:02:59.452Z,1.83
2022-08-24T13:05:39.218Z,1.80
2022-08-24T13:08:12.870Z,1.50
2022-08-24T13:10:44.286Z,1.57
2022-08-24T13:13:20.752Z,1.20
2022-08-24T13:15:54.084Z,1.60
2022-08-24T13:18:20.815Z,1.17
2022-08-24T13:20:50.592Z,1.10
2022-08-24T13:23:24.840Z,1.33
2022-08-24T13:25:56.307Z,1.33
2022-08-24T13:28:23.100Z,1.13
2022-08-24T13:31:03.137Z,1.57
2022-08-24T13:33:45.901Z,1.63
2022-08-24T13:36:31.375Z,1.20
2022-08-24T13:39:06.297Z,1.17
2022-08-24T13:41:36.127Z,1.10
2022-08-24T13:44:16.116Z,1.13
2022-08-24T13:47:05.420Z,1.20
2022-08-24T13:49:46.329Z,1.50
2022-08-24T13:52:22.559Z,1.30
2022-08-24T13:55:26.574Z,1.30
2022-08-24T13:58:18.081Z,1.30
2022-08-24T14:01:04.394Z,1.67
2022-08-24T14:03:45.097Z,1.30
2022-08-24T14:06:30.179Z,1.10
2022-08-24T14:09:18.908Z,1.20
2022-08-24T14:12:07.356Z,1.07
2022-08-24T14:14:52.984Z,1.43
2022-08-24T14:17:55.111Z,1.20
2022-08-24T14:20:55.479Z,0.97
2022-08-24T14:23:35.860Z,1.13
2022-08-24T14:26:43.411Z,1.30
2022-08-24T14:29:19.269Z,1.80
2022-08-24T14:32:00.089Z,0.93
2022-08-24T14:34:34.447Z,0.90
2022-08-24T14:37:02.911Z,1.50
2022-08-24T14:39:38.891Z,1.97
2022-08-24T14:42:15.001Z,1.17
2022-08-24T14:44:42.042Z,1.80
2022-08-24T14:47:19.738Z,1.80
2022-08-24T14:50:11.971Z,1.03
2022-08-24T14:52:51.991Z,0.93
2022-08-24T14:55:37.419Z,0.77
2022-08-24T14:58:21.017Z,1.10
2022-08-24T15:01:00.505Z,0.70
2022-08-24T15:03:33.440Z,1.00
2022-08-24T15:06:48.010Z,1.10
2022-08-24T15:09:35.740Z,1.17
2022-08-24T15:12:28.271Z,0.87
2022-08-24T15:15:21.302Z,1.57
2022-08-24T15:17:51.924Z,1.30
2022-08-24T15:20:22.139Z,1.10
2022-08-24T15:23:10.610Z,1.27
2022-08-24T15:25:59.764Z,1.00
2022-08-24T15:28:32.540Z,1.57
2022-08-24T15:31:07.216Z,1.23
2022-08-24T15:33:36.773Z,1.50
2022-08-24T15:36:10.894Z,1.43
2022-08-24T15:38:39.189Z,1.20
2022-08-24T15:41:35.775Z,1.17
2022-08-24T15:44:11.162Z,1.27
2022-08-24T15:46:49.962Z,1.20
2022-08-24T15:49:20.495Z,0.90
2022-08-24T15:51:58.337Z,1.23
2022-08-24T15:54:30.912Z,1.30
2022-08-24T15:57:04.172Z,1.10
2022-08-24T15:59:52.434Z,1.00
2022-08-24T16:02:28.569Z,0.80
2022-08-24T16:05:21.836Z,1.37
2022-08-24T16:08:04.127Z,1.17
2022-08-24T16:10:31.242Z,1.40
2022-08-24T16:13:16.362Z,1.20
2022-08-24T16:16:05.245Z,1.40
2022-08-24T16:18:49.570Z,1.17
2022-08-24T16:21:22.214Z,1.40
2022-08-24T16:24:02.164Z,1.57
2022-08-24T16:26:45.431Z,1.00
2022-08-24T16:29:34.992Z,1.27
2022-08-24T16:32:51.490Z,1.10
2022-08-24T16:35:22.591Z,1.40
2022-08-24T16:37:49.803Z,1.30
2022-08-24T16:40:16.778Z,1.20
2022-08-24T16:42:43.604Z,1.10
2022-08-24T16:45:12.512Z,1.00
2022-08-24T16:47:39.262Z,1.27
2022-08-24T16:50:07.353Z,1.47
2022-08-24T16:52:34.157Z,1.57
2022-08-24T16:55:01.629Z,1.40
2022-08-24T16:57:30.653Z,1.37
2022-08-24T16:59:57.529Z,1.10
2022-08-24T17:02:25.962Z,1.40
2022-08-24T17:04:54.760Z,1.80
2022-08-24T17:07:24.633Z,1.00
2022-08-24T17:09:52.033Z,1.83
2022-08-24T17:12:19.001Z,1.63
2022-08-24T17:14:45.747Z,1.90
2022-08-24T17:17:15.332Z,1.70
2022-08-24T17:19:43.753Z,1.67
2022-08-24T17:22:16.043Z,1.67
2022-08-24T17:24:43.645Z,1.90
2022-08-24T17:27:10.894Z,1.43
2022-08-24T17:29:37.811Z,1.73
2022-08-24T17:32:05.354Z,1.33
2022-08-24T17:34:32.571Z,1.27
2022-08-24T17:36:59.994Z,1.50
2022-08-24T17:39:26.996Z,1.30
2022-08-24T17:41:55.320Z,1.50
2022-08-24T17:44:26.052Z,2.07
2022-08-24T17:46:54.902Z,1.30
2022-08-24T17:49:21.832Z,2.20
2022-08-24T17:51:49.736Z,1.53
2022-08-24T17:54:17.853Z,1.80
2022-08-24T17:56:48.699Z,1.40
2022-08-24T17:59:22.164Z,2.10
2022-08-24T18:01:53.030Z,2.47
2022-08-24T18:04:21.070Z,1.77
2022-08-24T18:06:49.096Z,1.50
2022-08-24T18:09:35.339Z,2.07
2022-08-24T18:12:05.744Z,2.17
2022-08-24T18:14:34.645Z,2.00
2022-08-24T18:17:07.527Z,2.10
2022-08-24T18:19:35.361Z,2.03
2022-08-24T18:22:02.851Z,1.87
2022-08-24T18:24:32.742Z,1.73
2022-08-24T18:27:10.418Z,2.67
2022-08-24T18:29:39.381Z,1.57
2022-08-24T18:32:07.000Z,1.40
2022-08-24T18:34:34.780Z,1.90
2022-08-24T18:37:01.778Z,2.00
2022-08-24T18:39:28.830Z,2.10
2022-08-24T18:41:56.262Z,1.70
2022-08-24T18:44:26.208Z,2.03
2022-08-24T18:46:56.341Z,1.50
2022-08-24T18:49:23.063Z,2.07
2022-08-24T18:51:50.250Z,1.77
2022-08-24T18:54:25.152Z,1.90
2022-08-24T18:56:52.239Z,1.80
2022-08-24T18:59:20.910Z,2.70
2022-08-24T19:02:08.430Z,2.20
2022-08-24T19:04:42.730Z,1.93
2022-08-24T19:07:09.423Z,2.33
2022-08-24T19:09:36.724Z,1.93
2022-08-24T19:12:04.856Z,2.23
2022-08-24T19:14:32.736Z,2.30
2022-08-24T19:16:59.734Z,2.60
2022-08-24T19:19:26.588Z,2.20
2022-08-24T19:21:54.673Z,2.33
2022-08-24T19:24:27.041Z,2.00
2022-08-24T19:26:56.516Z,1.97
2022-08-24T19:29:54.676Z,2.00
2022-08-24T19:32:22.012Z,1.90
2022-08-24T19:34:50.307Z,2.03
2022-08-24T19:37:19.476Z,2.10
2022-08-24T19:39:47.824Z,1.77
2022-08-24T19:42:15.763Z,2.40
2022-08-24T19:45:01.459Z,1.50
2022-08-24T19:47:28.210Z,2.00
2022-08-24T19:49:55.002Z,2.40
2022-08-24T19:52:22.345Z,1.70
2022-08-24T19:54:49.139Z,2.10
2022-08-24T19:57:43.566Z,2.17
2022-08-24T20:00:25.506Z,2.00
2022-08-24T20:02:54.606Z,2.00
2022-08-24T20:05:23.602Z,2.20
2022-08-24T20:07:50.782Z,2.13
2022-08-24T20:10:21.352Z,2.07
2022-08-24T20:12:48.029Z,2.43
2022-08-24T20:15:14.894Z,2.40
2022-08-24T20:17:41.805Z,2.07
2022-08-24T20:20:10.717Z,3.70
2022-08-24T20:22:38.218Z,2.20
2022-08-24T20:25:06.233Z,1.93
2022-08-24T20:27:33.121Z,2.17
2022-08-24T20:30:00.157Z,2.07
2022-08-24T20:32:28.945Z,1.97
2022-08-24T20:34:55.784Z,2.17
2022-08-24T20:37:24.744Z,2.33
2022-08-24T20:39:53.748Z,2.23
2022-08-24T20:42:21.471Z,2.90
2022-08-24T20:44:49.566Z,1.90
2022-08-24T20:47:16.851Z,2.03
2022-08-24T20:49:43.628Z,2.67
2022-08-24T20:52:10.286Z,1.93
2022-08-24T20:54:39.685Z,2.33
2022-08-24T20:57:08.163Z,2.77
2022-08-24T20:59:35.434Z,2.60
2022-08-24T21:02:03.149Z,1.93
2022-08-24T21:04:30.067Z,2.30
2022-08-24T21:06:57.286Z,1.87
2022-08-24T21:09:24.228Z,1.63
2022-08-24T21:11:50.894Z,2.23
2022-08-24T21:14:17.855Z,1.80
2022-08-24T21:16:44.879Z,2.03
2022-08-24T21:19:13.435Z,2.50
2022-08-24T21:21:42.435Z,3.20
2022-08-24T21:24:09.914Z,2.57
2022-08-24T21:26:36.678Z,1.90
2022-08-24T21:29:04.877Z,2.57
2022-08-24T21:31:31.568Z,2.27
2022-08-24T21:34:16.957Z,1.97
2022-08-24T21:36:44.982Z,2.20
2022-08-24T21:39:13.427Z,2.30
2022-08-24T21:41:40.348Z,2.20
2022-08-24T21:44:07.006Z,1.67
2022-08-24T21:46:36.303Z,2.27
2022-08-24T21:49:03.868Z,2.47
2022-08-24T21:51:30.907Z,2.43
2022-08-24T21:53:59.615Z,2.40
2022-08-24T21:56:29.524Z,2.20
2022-08-24T21:58:56.194Z,1.20
2022-08-24T22:01:22.916Z,2.37
2022-08-24T22:03:49.759Z,2.70
2022-08-24T22:06:16.401Z,2.40
2022-08-24T22:08:43.512Z,2.70
2022-08-24T22:11:15.182Z,2.00
2022-08-24T22:13:42.367Z,2.37
2022-08-24T22:16:10.495Z,2.50
2022-08-24T22:18:37.241Z,2.80
2022-08-24T22:21:09.012Z,2.63
2022-08-24T22:23:35.970Z,2.57
2022-08-24T22:26:02.604Z,2.33
2022-08-24T22:28:29.302Z,2.60
2022-08-24T22:30:56.669Z,3.20
2022-08-24T22:33:23.835Z,2.80
2022-08-24T22:35:51.811Z,3.00
2022-08-24T22:38:19.565Z,2.57
2022-08-24T22:40:46.691Z,2.20
2022-08-24T22:43:13.359Z,2.77
2022-08-24T22:45:40.060Z,2.70
2022-08-24T22:48:06.730Z,2.90
2022-08-24T22:50:33.467Z,2.47
2022-08-24T22:53:00.099Z,3.27
2022-08-24T22:55:26.869Z,2.40
2022-08-24T22:57:53.940Z,2.40
2022-08-24T23:00:20.740Z,2.10
2022-08-24T23:02:47.412Z,2.60
2022-08-24T23:05:14.053Z,2.60
2022-08-24T23:07:40.804Z,2.60
2022-08-24T23:10:08.146Z,2.13
2022-08-24T23:12:34.921Z,2.07
2022-08-24T23:15:01.601Z,2.60
2022-08-24T23:17:28.382Z,2.60
2022-08-24T23:20:01.283Z,3.10
2022-08-24T23:22:31.749Z,2.40
2022-08-24T23:25:00.098Z,2.80
2022-08-24T23:27:27.195Z,2.20
2022-08-24T23:29:59.919Z,2.30
2022-08-24T23:32:27.503Z,3.17
2022-08-24T23:34:57.798Z,2.20
2022-08-24T23:37:24.641Z,2.60
2022-08-24T23:39:51.496Z,2.30
2022-08-24T23:42:18.264Z,2.10
2022-08-24T23:44:45.161Z,2.60
2022-08-24T23:47:11.872Z,2.30
2022-08-24T23:49:39.882Z,2.70
2022-08-24T23:52:06.608Z,2.10
2022-08-24T23:54:33.402Z,1.80
2022-08-24T23:57:00.685Z,2.33
2022-08-24T23:59:29.515Z,2.30
